Time;durP1;ratioP1;P1;durP2;ratioP2;P2;SDS_P1;SDS_P2;PMS_P1;PMS_P2;Temp;Humidity;BMP_temperature;BMP_pressure;BME280_temperature;BME280_humidity;BME280_pressure;Samples;Min_cycle;Max_cycle;Signal;HPM_P1;HPM_P2
2022/03/25 00:00:32;;;;;;;17.33;10.48;;;2.90;86.40;;;;;;2089558;28;20176;-72
2022/03/25 00:01:33;;;;;;;15.23;9.17;;;2.90;86.30;;;;;;2088760;28;20181;-72
2022/03/25 00:02:33;;;;;;;15.80;8.53;;;2.90;85.80;;;;;;2089712;28;20267;-72
2022/03/25 00:03:34;;;;;;;17.43;8.93;;;3.00;85.50;;;;;;2081145;28;20181;-72
2022/03/25 00:04:35;;;;;;;17.27;9.93;;;3.00;85.30;;;;;;2089839;28;20205;-71
2022/03/25 00:05:36;;;;;;;18.27;9.10;;;3.00;85.50;;;;;;2090099;28;20176;-72
2022/03/25 00:06:36;;;;;;;17.70;10.67;;;3.00;85.50;;;;;;2089690;28;20176;-72
2022/03/25 00:07:38;;;;;;;19.23;9.70;;;2.90;85.60;;;;;;2089581;28;20173;-72
2022/03/25 00:08:39;;;;;;;17.85;10.15;;;2.90;86.30;;;;;;2090261;28;20176;-72
2022/03/25 00:09:39;;;;;;;17.27;9.90;;;2.90;86.70;;;;;;2089235;28;20188;-72
2022/03/25 00:10:40;;;;;;;16.37;9.33;;;2.80;86.80;;;;;;2089741;28;20722;-72
2022/03/25 00:11:41;;;;;;;16.03;9.47;;;2.80;87.30;;;;;;2089706;28;20924;-72
2022/03/25 00:12:42;;;;;;;17.27;9.77;;;2.80;87.60;;;;;;2090280;28;20207;-72
2022/03/25 00:13:43;;;;;;;16.85;9.32;;;2.70;87.80;;;;;;2089762;28;20233;-72
2022/03/25 00:14:43;;;;;;;16.47;8.97;;;2.70;88.50;;;;;;2073213;28;20201;-72
2022/03/25 00:15:44;;;;;;;17.77;10.70;;;2.70;88.80;;;;;;2081508;28;20169;-72
2022/03/25 00:16:45;;;;;;;15.70;9.23;;;2.70;88.80;;;;;;2090045;28;20182;-72
2022/03/25 00:17:46;;;;;;;16.87;9.90;;;2.70;88.80;;;;;;2089706;28;20572;-72
2022/03/25 00:18:46;;;;;;;18.83;9.67;;;2.80;88.30;;;;;;2089503;28;20238;-72
2022/03/25 00:19:47;;;;;;;18.70;10.33;;;2.70;87.90;;;;;;2089790;28;20196;-71
2022/03/25 00:20:49;;;;;;;15.43;8.77;;;2.70;88.00;;;;;;2089766;28;20181;-71
2022/03/25 00:21:49;;;;;;;16.63;8.93;;;2.70;88.00;;;;;;2089149;28;20184;-72
2022/03/25 00:22:50;;;;;;;15.77;9.10;;;2.70;88.10;;;;;;2089810;28;20181;-72
2022/03/25 00:23:51;;;;;;;20.20;10.37;;;2.70;87.80;;;;;;2089538;28;20185;-72
2022/03/25 00:24:51;;;;;;;20.60;10.20;;;2.70;87.60;;;;;;2089517;28;20822;-72
2022/03/25 00:25:53;;;;;;;18.30;9.70;;;2.70;87.70;;;;;;2090594;28;20207;-71
2022/03/25 00:26:53;;;;;;;18.23;9.90;;;2.70;87.80;;;;;;2089805;28;20261;-73
2022/03/25 00:27:54;;;;;;;20.63;10.07;;;2.70;88.10;;;;;;2089776;28;20184;-72
2022/03/25 00:28:55;;;;;;;18.20;10.13;;;2.60;88.40;;;;;;2090217;28;20208;-72
2022/03/25 00:29:55;;;;;;;15.90;9.03;;;2.60;88.40;;;;;;2090722;28;20188;-72
2022/03/25 00:30:56;;;;;;;18.03;10.13;;;2.70;88.10;;;;;;2090328;28;20635;-71
2022/03/25 00:31:56;;;;;;;17.23;9.47;;;2.60;87.80;;;;;;2089658;28;20188;-71
2022/03/25 00:32:57;;;;;;;16.30;9.33;;;2.60;88.00;;;;;;2090435;28;20184;-72
2022/03/25 00:33:58;;;;;;;17.17;9.77;;;2.60;87.90;;;;;;2090321;28;20192;-72
2022/03/25 00:34:59;;;;;;;16.87;9.63;;;2.60;87.60;;;;;;2089557;28;20200;-72
2022/03/25 00:36:01;;;;;;;16.83;9.63;;;2.60;87.60;;;;;;2081543;28;20182;-72
2022/03/25 00:37:02;;;;;;;15.85;9.60;;;2.60;87.80;;;;;;2081665;28;20181;-72
2022/03/25 00:38:02;;;;;;;16.40;9.37;;;2.60;87.80;;;;;;2090030;28;20181;-72
2022/03/25 00:39:03;;;;;;;16.87;9.00;;;2.60;87.80;;;;;;2090275;28;20181;-70
2022/03/25 00:40:06;;;;;;;16.00;9.13;;;2.60;88.00;;;;;;2089663;28;20734;-72
2022/03/25 00:41:07;;;;;;;16.58;9.15;;;2.60;88.10;;;;;;2080669;28;20193;-71
2022/03/25 00:42:09;;;;;;;16.37;9.83;;;2.60;87.90;;;;;;2089653;28;20656;-70
2022/03/25 00:43:10;;;;;;;18.48;9.68;;;2.60;88.20;;;;;;2090439;28;20185;-73
2022/03/25 00:44:12;;;;;;;14.98;8.80;;;2.60;88.50;;;;;;2089729;28;20204;-72
2022/03/25 00:45:13;;;;;;;17.23;10.38;;;2.60;88.60;;;;;;2090024;28;20184;-72
2022/03/25 00:46:15;;;;;;;19.43;10.30;;;2.60;88.50;;;;;;2089628;28;20208;-71
2022/03/25 00:47:16;;;;;;;17.70;10.85;;;2.60;88.70;;;;;;2089653;28;20185;-72
2022/03/25 00:48:17;;;;;;;15.97;9.87;;;2.50;88.90;;;;;;2090198;28;20224;-71
2022/03/25 00:49:18;;;;;;;18.20;9.70;;;2.50;89.50;;;;;;2090129;28;20176;-71
2022/03/25 00:50:20;;;;;;;15.85;9.45;;;2.40;89.80;;;;;;2090281;28;20203;-70
2022/03/25 00:51:21;;;;;;;18.52;9.98;;;2.40;89.80;;;;;;2089590;28;20655;-71
2022/03/25 00:52:22;;;;;;;16.97;9.43;;;2.40;89.90;;;;;;2089743;28;20180;-71
2022/03/25 00:53:23;;;;;;;17.60;10.40;;;2.40;90.00;;;;;;2089435;28;20173;-71
2022/03/25 00:54:24;;;;;;;18.10;9.77;;;2.40;90.20;;;;;;2089200;28;20446;-71
2022/03/25 00:55:25;;;;;;;17.40;10.02;;;2.40;90.30;;;;;;2081255;28;20213;-70
2022/03/25 00:56:26;;;;;;;19.27;10.90;;;2.40;90.30;;;;;;2089459;28;20643;-70
2022/03/25 00:57:27;;;;;;;16.30;9.63;;;2.30;90.20;;;;;;2090155;28;20177;-70
2022/03/25 00:58:28;;;;;;;17.70;10.17;;;2.30;90.40;;;;;;2090205;28;20180;-71
2022/03/25 00:59:29;;;;;;;18.42;10.50;;;2.30;91.10;;;;;;2091086;28;20246;-71
2022/03/25 01:00:30;;;;;;;17.60;9.17;;;2.20;90.90;;;;;;2090952;28;20191;-72
2022/03/25 01:01:31;;;;;;;20.33;10.00;;;2.20;91.10;;;;;;2090173;28;20176;-72
2022/03/25 01:02:31;;;;;;;15.80;9.53;;;2.20;91.20;;;;;;2091656;28;20604;-71
2022/03/25 01:03:32;;;;;;;18.27;10.60;;;2.20;91.30;;;;;;2091851;28;20192;-71
2022/03/25 01:04:33;;;;;;;17.10;9.20;;;2.20;91.30;;;;;;2091520;28;20200;-71
2022/03/25 01:05:34;;;;;;;14.37;9.07;;;2.20;91.40;;;;;;2091614;28;20197;-72
2022/03/25 01:06:35;;;;;;;19.70;10.20;;;2.20;91.40;;;;;;2091502;28;20188;-71
2022/03/25 01:07:36;;;;;;;15.27;9.02;;;2.20;91.30;;;;;;2082795;28;20242;-74
2022/03/25 01:08:37;;;;;;;19.07;10.30;;;2.30;91.10;;;;;;2082384;28;20295;-71
2022/03/25 01:09:37;;;;;;;18.07;9.60;;;2.30;90.80;;;;;;2090555;28;20176;-71
2022/03/25 01:10:38;;;;;;;16.33;10.13;;;2.30;90.80;;;;;;2090810;28;20176;-71
2022/03/25 01:11:39;;;;;;;18.87;10.50;;;2.30;90.80;;;;;;2090503;28;20184;-71
2022/03/25 01:12:40;;;;;;;20.23;11.10;;;2.20;91.10;;;;;;2082252;28;20184;-71
2022/03/25 01:13:41;;;;;;;17.77;9.60;;;2.10;91.20;;;;;;2091245;28;20215;-71
2022/03/25 01:14:42;;;;;;;15.25;9.75;;;2.10;91.40;;;;;;2090971;28;20710;-71
2022/03/25 01:15:43;;;;;;;17.00;9.27;;;2.10;91.50;;;;;;2090698;28;20275;-71
2022/03/25 01:16:43;;;;;;;16.00;9.77;;;2.10;91.60;;;;;;2082590;28;20216;-71
2022/03/25 01:17:44;;;;;;;18.07;9.23;;;2.10;91.80;;;;;;2082384;28;20227;-71
2022/03/25 01:18:45;;;;;;;18.23;10.07;;;2.10;91.80;;;;;;2091009;28;20538;-71
2022/03/25 01:19:46;;;;;;;17.00;9.27;;;2.10;92.40;;;;;;2082507;28;20185;-70
2022/03/25 01:20:47;;;;;;;17.17;10.13;;;2.00;92.00;;;;;;2074271;28;20217;-71
2022/03/25 01:21:48;;;;;;;18.07;10.07;;;2.10;92.10;;;;;;2090307;28;20618;-70
2022/03/25 01:22:49;;;;;;;16.80;10.13;;;2.10;92.10;;;;;;2090612;28;20187;-70
2022/03/25 01:23:50;;;;;;;20.75;9.93;;;2.10;92.10;;;;;;2090731;28;20180;-71
2022/03/25 01:24:51;;;;;;;18.30;9.65;;;2.10;92.10;;;;;;2090714;28;20180;-71
2022/03/25 01:25:52;;;;;;;16.90;9.53;;;2.10;92.30;;;;;;2090979;28;20703;-70
2022/03/25 01:26:52;;;;;;;18.17;9.93;;;2.00;92.40;;;;;;2091225;28;20179;-70
2022/03/25 01:27:54;;;;;;;18.50;9.93;;;2.00;92.40;;;;;;2091281;28;20189;-71
2022/03/25 01:28:54;;;;;;;16.63;9.68;;;2.00;92.40;;;;;;2091473;28;20792;-70
2022/03/25 01:29:55;;;;;;;17.03;10.40;;;2.00;92.40;;;;;;2091476;28;20181;-71
2022/03/25 01:30:56;;;;;;;18.77;10.43;;;2.00;92.40;;;;;;2090728;28;20256;-71
2022/03/25 01:31:57;;;;;;;19.67;10.40;;;2.10;92.20;;;;;;2090492;28;20631;-70
2022/03/25 01:32:58;;;;;;;19.60;11.07;;;2.10;92.00;;;;;;2091029;28;20192;-71
2022/03/25 01:33:59;;;;;;;19.73;10.43;;;2.10;91.90;;;;;;2090533;28;20203;-70
2022/03/25 01:35:00;;;;;;;19.80;10.35;;;2.10;91.80;;;;;;2090993;28;20208;-71
2022/03/25 01:36:00;;;;;;;20.10;10.88;;;2.10;91.70;;;;;;2090833;28;20208;-70
2022/03/25 01:37:02;;;;;;;18.60;10.13;;;2.10;91.70;;;;;;2082718;28;20197;-71
2022/03/25 01:38:04;;;;;;;21.67;11.20;;;2.10;91.90;;;;;;2082692;28;20185;-71
2022/03/25 01:39:05;;;;;;;21.20;10.65;;;2.10;92.00;;;;;;2082864;28;20185;-71
2022/03/25 01:40:09;;;;;;;18.97;9.93;;;2.10;92.00;;;;;;2082632;28;20227;-70
2022/03/25 01:41:10;;;;;;;21.67;10.93;;;2.10;92.00;;;;;;2090331;28;20172;-70
2022/03/25 01:42:11;;;;;;;20.38;10.82;;;2.10;91.80;;;;;;2091163;28;21001;-72
2022/03/25 01:43:12;;;;;;;20.83;10.63;;;2.10;91.70;;;;;;2091198;28;20176;-72
2022/03/25 01:44:13;;;;;;;18.27;9.83;;;2.10;91.60;;;;;;2091388;28;20700;-71
2022/03/25 01:45:13;;;;;;;19.07;10.00;;;2.10;91.50;;;;;;2091485;28;20242;-72
2022/03/25 01:46:15;;;;;;;17.77;10.57;;;2.10;91.30;;;;;;2091449;28;20648;-72
2022/03/25 01:47:16;;;;;;;17.30;10.38;;;2.10;91.20;;;;;;2091445;28;20180;-72
2022/03/25 01:48:17;;;;;;;21.83;10.87;;;2.10;91.30;;;;;;2091364;28;20643;-71
2022/03/25 01:49:19;;;;;;;18.33;10.87;;;2.00;91.40;;;;;;2090772;28;21037;-71
2022/03/25 01:50:21;;;;;;;17.33;10.10;;;1.90;91.60;;;;;;2090723;28;20200;-71
2022/03/25 01:51:45;;;;;;;19.38;10.60;;;1.90;91.80;;;;;;2090741;28;20188;-72
2022/03/25 01:52:48;;;;;;;18.92;9.93;;;1.90;92.00;;;;;;2090457;28;20196;-72
2022/03/25 01:53:49;;;;;;;18.15;9.25;;;1.80;92.30;;;;;;2082645;28;20224;-71
2022/03/25 01:54:49;;;;;;;17.80;10.20;;;1.80;92.50;;;;;;2082598;28;20181;-71
2022/03/25 01:55:59;;;;;;;15.90;9.23;;;1.80;92.40;;;;;;2082436;28;20189;-71
2022/03/25 01:57:06;;;;;;;18.83;10.25;;;1.90;92.40;;;;;;2083742;28;20192;-71
2022/03/25 01:58:06;;;;;;;15.50;8.38;;;1.90;92.40;;;;;;2083238;28;20212;-70
2022/03/25 01:59:09;;;;;;;17.77;9.77;;;1.90;92.30;;;;;;2090674;28;20638;-71
2022/03/25 02:00:14;;;;;;;17.63;10.30;;;1.80;92.40;;;;;;2091222;28;20204;-70
2022/03/25 02:01:16;;;;;;;20.15;10.05;;;1.80;92.40;;;;;;2090468;28;20188;-72
2022/03/25 02:02:16;;;;;;;17.70;10.32;;;1.80;92.60;;;;;;2090984;28;20168;-71
2022/03/25 02:03:18;;;;;;;19.13;10.20;;;1.80;92.90;;;;;;2090133;28;20568;-72
2022/03/25 02:04:19;;;;;;;21.55;11.40;;;1.80;93.20;;;;;;2082348;28;20704;-71
2022/03/25 02:05:19;;;;;;;17.90;10.03;;;1.80;93.10;;;;;;2090457;28;20184;-71
2022/03/25 02:06:20;;;;;;;19.33;9.97;;;1.80;93.10;;;;;;2090912;28;20180;-71
2022/03/25 02:07:21;;;;;;;18.53;10.50;;;1.80;93.00;;;;;;2091202;28;20192;-72
2022/03/25 02:08:21;;;;;;;22.40;11.87;;;1.80;92.90;;;;;;2090234;28;20184;-71
2022/03/25 02:09:22;;;;;;;21.30;10.03;;;1.70;92.90;;;;;;2082008;28;20194;-71
2022/03/25 02:10:23;;;;;;;21.13;10.90;;;1.70;92.90;;;;;;2082203;28;20189;-71
2022/03/25 02:11:24;;;;;;;20.77;10.97;;;1.70;93.50;;;;;;2089798;28;20185;-71
2022/03/25 02:12:25;;;;;;;20.07;9.93;;;1.70;93.00;;;;;;2090663;28;20172;-71
2022/03/25 02:13:25;;;;;;;18.50;10.60;;;1.70;93.10;;;;;;2090228;28;20617;-71
2022/03/25 02:14:26;;;;;;;16.33;9.30;;;1.60;93.10;;;;;;2091229;28;20283;-72
2022/03/25 02:15:37;;;;;;;18.17;10.45;;;1.70;93.20;;;;;;2091054;28;20208;-71
2022/03/25 02:16:43;;;;;;;18.10;10.02;;;1.60;93.00;;;;;;2091218;28;20168;-72
2022/03/25 02:17:43;;;;;;;25.17;11.15;;;1.60;93.10;;;;;;2091045;28;20587;-71
2022/03/25 02:18:45;;;;;;;19.30;10.47;;;1.50;93.50;;;;;;2089906;28;20200;-71
2022/03/25 02:19:48;;;;;;;18.40;10.70;;;1.60;93.90;;;;;;2090379;28;20188;-71
2022/03/25 02:20:50;;;;;;;20.77;10.93;;;1.60;94.10;;;;;;2090349;28;20192;-72
2022/03/25 02:21:51;;;;;;;19.10;11.50;;;1.60;94.10;;;;;;2090551;28;20212;-71
2022/03/25 02:22:51;;;;;;;19.48;10.02;;;1.60;93.80;;;;;;2091179;28;20678;-71
2022/03/25 02:23:52;;;;;;;17.57;9.33;;;1.60;93.70;;;;;;2091062;28;20272;-72
2022/03/25 02:24:54;;;;;;;19.90;10.47;;;1.60;93.60;;;;;;2091050;28;20173;-72
2022/03/25 02:25:55;;;;;;;19.20;9.93;;;1.50;93.60;;;;;;2091234;28;20647;-71
2022/03/25 02:26:57;;;;;;;21.00;10.23;;;1.50;93.80;;;;;;2090438;28;20180;-72
2022/03/25 02:27:59;;;;;;;20.63;10.57;;;1.40;94.00;;;;;;2090005;28;20647;-71
2022/03/25 02:29:00;;;;;;;20.45;10.75;;;1.40;94.10;;;;;;2091156;28;20219;-72
2022/03/25 02:30:01;;;;;;;19.83;10.15;;;1.40;94.10;;;;;;2090028;28;20173;-71
2022/03/25 02:31:01;;;;;;;19.87;10.80;;;1.40;94.20;;;;;;2090565;28;20198;-71
2022/03/25 02:32:02;;;;;;;17.80;10.80;;;1.40;94.40;;;;;;2089728;28;20821;-71
2022/03/25 02:33:07;;;;;;;16.93;9.53;;;1.40;94.50;;;;;;2089745;28;20184;-72
2022/03/25 02:34:09;;;;;;;19.52;10.25;;;1.40;94.40;;;;;;2090074;28;20474;-71
2022/03/25 02:35:10;;;;;;;17.27;9.30;;;1.40;94.50;;;;;;2081873;28;20212;-71
2022/03/25 02:36:11;;;;;;;18.95;10.77;;;1.40;94.40;;;;;;2089605;28;20655;-71
2022/03/25 02:37:11;;;;;;;19.33;10.00;;;1.40;94.40;;;;;;2090683;28;20213;-72
2022/03/25 02:38:16;;;;;;;18.70;10.57;;;1.40;94.30;;;;;;2089900;28;20613;-71
2022/03/25 02:39:18;;;;;;;18.45;10.20;;;1.40;94.80;;;;;;2082538;28;20198;-72
2022/03/25 02:40:18;;;;;;;17.52;10.55;;;1.40;94.30;;;;;;2081766;28;20180;-71
2022/03/25 02:41:19;;;;;;;18.83;10.23;;;1.50;94.10;;;;;;2089731;28;20181;-71
2022/03/25 02:42:20;;;;;;;20.03;9.63;;;1.50;93.90;;;;;;2090193;28;20222;-71
2022/03/25 02:43:21;;;;;;;18.43;10.07;;;1.50;93.70;;;;;;2090313;28;20173;-71
2022/03/25 02:44:21;;;;;;;16.60;9.53;;;1.50;93.50;;;;;;2090915;28;20547;-72
2022/03/25 02:45:22;;;;;;;20.53;11.00;;;1.50;93.40;;;;;;2091096;28;20180;-71
2022/03/25 02:46:23;;;;;;;19.30;10.63;;;1.50;93.50;;;;;;2090744;28;20740;-72
2022/03/25 02:47:24;;;;;;;20.97;11.47;;;1.40;93.70;;;;;;2090425;28;20177;-71
2022/03/25 02:48:24;;;;;;;21.67;10.77;;;1.30;93.80;;;;;;2090363;28;20295;-72
2022/03/25 02:49:25;;;;;;;22.23;12.07;;;1.40;94.10;;;;;;2090565;28;20189;-72
2022/03/25 02:50:26;;;;;;;19.67;11.70;;;1.30;94.10;;;;;;2090677;28;20655;-72
2022/03/25 02:51:26;;;;;;;21.20;10.57;;;1.40;94.10;;;;;;2089360;28;20615;-72
2022/03/25 02:52:27;;;;;;;18.93;10.17;;;1.40;94.20;;;;;;2090298;28;20184;-71
2022/03/25 02:53:28;;;;;;;20.80;10.73;;;1.40;94.30;;;;;;2090393;28;20177;-71
2022/03/25 02:54:29;;;;;;;18.65;10.05;;;1.30;94.40;;;;;;2081690;28;20260;-72
2022/03/25 02:55:29;;;;;;;19.80;11.10;;;1.40;94.40;;;;;;2089696;28;20235;-71
2022/03/25 02:56:30;;;;;;;17.60;9.77;;;1.40;94.30;;;;;;2098397;28;20187;-72
2022/03/25 02:57:31;;;;;;;17.33;10.03;;;1.40;94.40;;;;;;2098094;28;20187;-71
2022/03/25 02:58:31;;;;;;;18.70;9.67;;;1.30;94.40;;;;;;2090263;28;20186;-70
2022/03/25 02:59:32;;;;;;;20.03;10.20;;;1.40;94.30;;;;;;2090436;28;20180;-71
2022/03/25 03:00:34;;;;;;;16.03;9.60;;;1.30;94.40;;;;;;2090474;28;20684;-71
2022/03/25 03:01:34;;;;;;;17.75;10.05;;;1.30;94.70;;;;;;2089288;28;20290;-71
2022/03/25 03:02:36;;;;;;;22.83;10.30;;;1.30;94.80;;;;;;2088707;28;20191;-70
2022/03/25 03:03:37;;;;;;;20.77;11.15;;;1.30;94.70;;;;;;2090239;28;20210;-71
2022/03/25 03:04:38;;;;;;;19.40;10.73;;;1.30;94.60;;;;;;2090352;28;20208;-71
2022/03/25 03:05:39;;;;;;;18.97;10.33;;;1.30;95.10;;;;;;2090525;28;20180;-71
2022/03/25 03:06:39;;;;;;;20.92;10.55;;;1.40;94.90;;;;;;2090601;28;20245;-71
2022/03/25 03:07:40;;;;;;;18.40;10.70;;;1.30;94.70;;;;;;2089896;28;20185;-71
2022/03/25 03:08:41;;;;;;;17.73;10.47;;;1.30;94.90;;;;;;2090008;28;20184;-70
2022/03/25 03:09:42;;;;;;;17.83;10.90;;;1.30;94.90;;;;;;2090127;28;20181;-71
2022/03/25 03:10:43;;;;;;;19.00;10.83;;;1.30;94.90;;;;;;2089540;28;21091;-71
2022/03/25 03:11:44;;;;;;;19.08;10.13;;;1.30;95.00;;;;;;2089264;28;20423;-71
2022/03/25 03:12:44;;;;;;;19.70;10.67;;;1.30;95.00;;;;;;2090639;28;20189;-71
2022/03/25 03:13:45;;;;;;;20.63;10.13;;;1.30;95.10;;;;;;2090229;28;20188;-70
2022/03/25 03:14:47;;;;;;;18.40;10.87;;;1.30;95.00;;;;;;2090663;28;20203;-71
2022/03/25 03:15:48;;;;;;;20.30;11.85;;;1.30;94.80;;;;;;2090599;28;20184;-70
2022/03/25 03:16:49;;;;;;;19.30;9.80;;;1.30;94.90;;;;;;2090364;28;20556;-72
2022/03/25 03:17:50;;;;;;;18.50;10.07;;;1.20;95.00;;;;;;2090278;28;20180;-71
2022/03/25 03:18:50;;;;;;;18.57;10.73;;;1.20;95.00;;;;;;2089782;28;20177;-71
2022/03/25 03:19:51;;;;;;;20.43;10.73;;;1.10;95.30;;;;;;2089916;28;20460;-71
2022/03/25 03:20:52;;;;;;;20.80;10.80;;;1.10;95.50;;;;;;2088847;28;20176;-71
2022/03/25 03:21:53;;;;;;;17.15;9.70;;;1.10;95.80;;;;;;2089248;28;20614;-71
2022/03/25 03:22:57;;;;;;;21.87;10.50;;;1.10;95.90;;;;;;2089520;28;20202;-71
2022/03/25 03:23:57;;;;;;;19.48;10.23;;;1.10;95.70;;;;;;2089668;28;20651;-71
2022/03/25 03:24:58;;;;;;;16.60;9.27;;;1.10;95.70;;;;;;2082030;28;20189;-71
2022/03/25 03:25:59;;;;;;;21.17;11.83;;;1.10;95.60;;;;;;2081517;28;20230;-71
2022/03/25 03:27:00;;;;;;;21.00;11.33;;;1.20;95.40;;;;;;2089751;28;20187;-72
2022/03/25 03:28:00;;;;;;;20.53;10.83;;;1.10;95.30;;;;;;2090276;28;20180;-72
2022/03/25 03:29:01;;;;;;;19.43;11.60;;;1.10;95.60;;;;;;2089722;28;20180;-71
2022/03/25 03:30:08;;;;;;;20.37;11.40;;;1.10;96.40;;;;;;2089894;28;20184;-71
2022/03/25 03:31:09;;;;;;;20.98;10.98;;;1.00;96.00;;;;;;2089717;28;20171;-72
2022/03/25 03:32:09;;;;;;;18.00;10.17;;;1.00;96.20;;;;;;2089621;28;20192;-71
2022/03/25 03:33:10;;;;;;;20.10;11.20;;;1.00;96.30;;;;;;2090177;28;20176;-72
2022/03/25 03:34:11;;;;;;;20.73;10.40;;;1.00;96.80;;;;;;2090422;28;20203;-71
2022/03/25 03:35:12;;;;;;;22.43;11.77;;;1.00;96.20;;;;;;2090449;28;20607;-72
2022/03/25 03:36:12;;;;;;;18.40;11.07;;;1.00;96.10;;;;;;2090468;28;20180;-71
2022/03/25 03:37:13;;;;;;;20.10;11.17;;;1.00;96.20;;;;;;2089840;28;20411;-72
2022/03/25 03:38:14;;;;;;;19.77;10.47;;;1.00;96.00;;;;;;2081719;28;20222;-70
2022/03/25 03:39:14;;;;;;;19.03;11.13;;;1.00;96.20;;;;;;2081677;28;20176;-70
2022/03/25 03:40:16;;;;;;;24.07;10.33;;;1.00;96.10;;;;;;2089739;28;20172;-71
2022/03/25 03:41:16;;;;;;;18.08;9.68;;;1.00;96.00;;;;;;2090091;28;20206;-72
2022/03/25 03:42:17;;;;;;;22.27;10.17;;;1.00;96.20;;;;;;2089943;28;20608;-71
2022/03/25 03:43:18;;;;;;;20.20;10.67;;;1.00;96.40;;;;;;2089966;28;20556;-70
2022/03/25 03:44:18;;;;;;;21.20;11.47;;;1.00;96.50;;;;;;2089359;28;20196;-70
2022/03/25 03:45:19;;;;;;;22.67;10.87;;;1.00;96.70;;;;;;2090209;28;20188;-70
2022/03/25 03:46:20;;;;;;;19.17;9.73;;;0.90;96.70;;;;;;2090458;28;20195;-70
2022/03/25 03:47:20;;;;;;;21.17;10.70;;;1.00;96.80;;;;;;2089818;28;20177;-71
2022/03/25 03:48:21;;;;;;;23.70;11.03;;;1.00;96.60;;;;;;2090319;28;20206;-71
2022/03/25 03:49:22;;;;;;;19.17;10.03;;;1.00;96.60;;;;;;2090238;28;20180;-71
2022/03/25 03:50:22;;;;;;;20.57;10.67;;;1.00;96.70;;;;;;2097859;28;20191;-72
2022/03/25 03:51:23;;;;;;;17.47;11.57;;;1.00;96.70;;;;;;2097381;28;20214;-72
2022/03/25 03:52:25;;;;;;;21.10;10.23;;;1.00;96.70;;;;;;2090530;28;20181;-71
2022/03/25 03:53:26;;;;;;;18.73;10.23;;;1.00;96.70;;;;;;2089784;28;20188;-71
2022/03/25 03:54:26;;;;;;;20.63;11.27;;;1.00;96.70;;;;;;2089799;28;20231;-71
2022/03/25 03:55:27;;;;;;;20.17;11.17;;;0.90;96.60;;;;;;2089904;28;20227;-71
2022/03/25 03:56:28;;;;;;;20.33;11.33;;;0.90;96.70;;;;;;2089918;28;20226;-71
2022/03/25 03:57:29;;;;;;;20.23;10.33;;;0.90;96.70;;;;;;2090298;28;20180;-71
2022/03/25 03:58:30;;;;;;;19.92;10.32;;;0.90;97.00;;;;;;2089761;28;20578;-71
2022/03/25 03:59:30;;;;;;;17.80;10.07;;;0.90;97.50;;;;;;2088759;28;20231;-71
2022/03/25 04:00:32;;;;;;;18.73;10.17;;;0.90;97.30;;;;;;2090249;28;20184;-71
2022/03/25 04:01:33;;;;;;;19.80;10.23;;;0.90;97.40;;;;;;2089240;28;20195;-71
2022/03/25 04:02:33;;;;;;;20.02;10.35;;;0.90;97.50;;;;;;2089855;28;20181;-71
2022/03/25 04:03:34;;;;;;;22.80;11.20;;;0.90;97.60;;;;;;2090183;28;20527;-70
2022/03/25 04:04:35;;;;;;;21.23;11.23;;;0.90;97.60;;;;;;2089473;28;20268;-70
2022/03/25 04:05:35;;;;;;;20.33;10.50;;;0.90;97.70;;;;;;2081252;28;20707;-71
2022/03/25 04:06:36;;;;;;;19.57;11.03;;;0.80;97.70;;;;;;2081530;28;20188;-70
2022/03/25 04:07:47;;;;;;;19.57;10.53;;;0.80;97.70;;;;;;2089578;28;20624;-71
2022/03/25 04:08:50;;;;;;;23.70;11.43;;;0.80;97.60;;;;;;2090228;28;20196;-70
2022/03/25 04:09:51;;;;;;;21.95;11.00;;;0.80;97.70;;;;;;2090127;28;20188;-70
2022/03/25 04:10:52;;;;;;;19.17;10.60;;;0.70;98.00;;;;;;2089628;28;20234;-71
2022/03/25 04:11:53;;;;;;;22.50;10.57;;;0.70;98.30;;;;;;2080738;28;20185;-72
2022/03/25 04:12:54;;;;;;;23.58;10.80;;;0.70;98.30;;;;;;2089664;28;20670;-72
2022/03/25 04:13:55;;;;;;;18.27;10.35;;;0.70;98.50;;;;;;2089222;28;20751;-72
2022/03/25 04:14:56;;;;;;;24.43;11.33;;;0.70;98.60;;;;;;2089773;28;20196;-71
2022/03/25 04:15:56;;;;;;;20.47;10.07;;;0.70;98.60;;;;;;2090106;28;20554;-71
2022/03/25 04:16:57;;;;;;;21.70;11.67;;;0.70;98.50;;;;;;2089133;28;20608;-71
2022/03/25 04:17:58;;;;;;;21.77;10.50;;;0.70;98.40;;;;;;2089173;28;20177;-71
2022/03/25 04:18:58;;;;;;;22.03;10.60;;;0.70;98.50;;;;;;2090392;28;20181;-71
2022/03/25 04:19:59;;;;;;;22.93;12.03;;;0.70;98.10;;;;;;2089885;28;20187;-71
2022/03/25 04:21:00;;;;;;;20.57;11.17;;;0.70;98.10;;;;;;2090151;28;20226;-71
2022/03/25 04:22:01;;;;;;;19.30;11.13;;;0.70;98.20;;;;;;2088783;28;20191;-71
2022/03/25 04:23:01;;;;;;;22.37;12.07;;;0.60;98.40;;;;;;2089773;28;20183;-71
2022/03/25 04:24:02;;;;;;;21.60;11.63;;;0.60;98.60;;;;;;2090271;28;20172;-71
2022/03/25 04:25:06;;;;;;;18.57;10.30;;;0.60;98.90;;;;;;2090041;28;20198;-71
2022/03/25 04:26:07;;;;;;;20.45;11.02;;;0.60;99.10;;;;;;2089984;28;20289;-71
2022/03/25 04:27:09;;;;;;;20.37;10.53;;;0.60;98.90;;;;;;2089653;28;20177;-72
2022/03/25 04:28:09;;;;;;;24.05;11.38;;;0.60;98.80;;;;;;2089400;28;21157;-71
2022/03/25 04:29:10;;;;;;;21.77;11.20;;;0.50;98.90;;;;;;2089725;28;20180;-71
2022/03/25 04:30:11;;;;;;;20.75;10.77;;;0.50;99.00;;;;;;2089397;28;20683;-71
2022/03/25 04:31:12;;;;;;;22.10;12.10;;;0.50;99.10;;;;;;2089394;28;20194;-71
2022/03/25 04:32:13;;;;;;;21.17;10.60;;;0.50;99.20;;;;;;2089395;28;20191;-71
2022/03/25 04:33:14;;;;;;;20.87;11.33;;;0.50;99.40;;;;;;2089979;28;20188;-71
2022/03/25 04:34:14;;;;;;;21.47;11.50;;;0.50;99.30;;;;;;2091345;28;20361;-71
2022/03/25 04:35:16;;;;;;;22.37;10.20;;;0.60;99.30;;;;;;2091274;28;20206;-72
2022/03/25 04:36:16;;;;;;;20.25;11.55;;;0.50;99.10;;;;;;2090879;28;20175;-71
2022/03/25 04:37:17;;;;;;;18.87;10.07;;;0.60;99.10;;;;;;2090613;28;20177;-71
2022/03/25 04:38:17;;;;;;;22.37;10.83;;;0.60;99.00;;;;;;2090807;28;20167;-72
2022/03/25 04:39:18;;;;;;;21.43;10.50;;;0.60;98.80;;;;;;2083106;28;20172;-71
2022/03/25 04:40:22;;;;;;;18.60;10.73;;;0.60;98.60;;;;;;2091147;28;20702;-71
2022/03/25 04:41:23;;;;;;;17.10;10.20;;;0.60;98.60;;;;;;2090707;28;20175;-71
2022/03/25 04:42:25;;;;;;;22.37;10.10;;;0.60;98.60;;;;;;2091842;28;20183;-70
2022/03/25 04:43:25;;;;;;;21.02;11.57;;;0.60;98.80;;;;;;2091521;28;20259;-70
2022/03/25 04:44:26;;;;;;;18.37;10.57;;;0.60;98.50;;;;;;2091881;28;20209;-71
2022/03/25 04:45:29;;;;;;;21.93;10.80;;;0.60;98.60;;;;;;2090637;28;20188;-71
2022/03/25 04:46:29;;;;;;;20.17;10.75;;;0.60;98.70;;;;;;2083121;28;20262;-71
2022/03/25 04:47:30;;;;;;;25.27;11.53;;;0.50;98.90;;;;;;2090687;28;20192;-71
2022/03/25 04:48:32;;;;;;;23.23;10.57;;;0.60;99.00;;;;;;2092069;28;20199;-71
2022/03/25 04:49:33;;;;;;;21.88;11.00;;;0.60;98.90;;;;;;2091532;28;20204;-72
2022/03/25 04:50:33;;;;;;;20.40;11.13;;;0.60;98.70;;;;;;2091603;28;20234;-71
2022/03/25 04:51:35;;;;;;;20.87;10.60;;;0.50;98.50;;;;;;2090084;28;20180;-71
2022/03/25 04:52:36;;;;;;;20.27;10.35;;;0.50;98.70;;;;;;2082991;28;20549;-71
2022/03/25 04:53:37;;;;;;;18.63;10.02;;;0.50;98.80;;;;;;2082945;28;20267;-71
2022/03/25 04:54:38;;;;;;;21.95;10.35;;;0.50;98.90;;;;;;2082361;28;20200;-71
2022/03/25 04:55:39;;;;;;;21.40;11.60;;;0.50;99.10;;;;;;2090580;28;20261;-71
2022/03/25 04:56:39;;;;;;;20.70;10.83;;;0.50;99.60;;;;;;2091322;28;20705;-72
2022/03/25 04:57:41;;;;;;;19.90;10.40;;;0.50;99.10;;;;;;2090860;28;20188;-71
2022/03/25 04:58:42;;;;;;;19.67;10.38;;;0.50;99.00;;;;;;2090976;28;20190;-71
2022/03/25 04:59:42;;;;;;;19.93;10.67;;;0.60;98.90;;;;;;2091637;28;20188;-71
2022/03/25 05:00:43;;;;;;;19.40;10.60;;;0.60;98.50;;;;;;2091128;28;20172;-71
2022/03/25 05:01:44;;;;;;;18.57;10.97;;;0.60;98.10;;;;;;2090675;28;20184;-71
2022/03/25 05:02:45;;;;;;;21.97;12.10;;;0.60;98.00;;;;;;2091976;28;20194;-72
2022/03/25 05:03:46;;;;;;;21.23;12.55;;;0.60;97.90;;;;;;2091253;28;20200;-71
2022/03/25 05:04:47;;;;;;;20.37;10.67;;;0.60;97.90;;;;;;2083066;28;20208;-71
2022/03/25 05:05:48;;;;;;;23.00;12.30;;;0.60;97.90;;;;;;2082874;28;20202;-71
2022/03/25 05:06:48;;;;;;;23.40;11.93;;;0.60;98.00;;;;;;2091311;28;20188;-71
2022/03/25 05:07:50;;;;;;;18.87;10.63;;;0.60;98.10;;;;;;2091061;28;20207;-71
2022/03/25 05:08:51;;;;;;;20.33;11.18;;;0.50;97.80;;;;;;2091187;28;20184;-71
2022/03/25 05:09:51;;;;;;;22.57;11.97;;;0.50;98.30;;;;;;2091797;28;20274;-72
2022/03/25 05:10:52;;;;;;;19.63;11.23;;;0.50;98.70;;;;;;2091217;28;20250;-71
2022/03/25 05:11:53;;;;;;;21.43;10.70;;;0.40;98.90;;;;;;2090573;28;20183;-71
2022/03/25 05:12:54;;;;;;;22.20;11.80;;;0.50;99.10;;;;;;2091888;28;20183;-71
2022/03/25 05:13:55;;;;;;;20.27;11.80;;;0.40;99.40;;;;;;2090824;28;20185;-71
2022/03/25 05:14:56;;;;;;;20.70;10.07;;;0.40;99.30;;;;;;2091445;28;20183;-71
2022/03/25 05:15:56;;;;;;;23.58;11.82;;;0.40;99.50;;;;;;2091146;28;20670;-71